createdAt,value
2019-02-20T00:01:55.976Z,101980.62
2019-02-20T00:04:25.249Z,101974.03
2019-02-20T00:06:54.550Z,101973.53
2019-02-20T00:09:25.195Z,101966.92
2019-02-20T00:11:54.476Z,101966.74
2019-02-20T00:14:23.801Z,101971.31
2019-02-20T00:16:53.094Z,101972.79
2019-02-20T00:19:22.349Z,101970.78
2019-02-20T00:21:51.650Z,101979.30
2019-02-20T00:24:20.907Z,101973.72
2019-02-20T00:26:50.210Z,101972.14
2019-02-20T00:29:19.473Z,101971.94
2019-02-20T00:31:48.778Z,101976.95
2019-02-20T00:34:18.157Z,101978.55
2019-02-20T00:36:47.449Z,101980.67
2019-02-20T00:39:18.593Z,101985.91
2019-02-20T00:41:47.857Z,101983.45
2019-02-20T00:44:32.440Z,101983.05
2019-02-20T00:47:35.881Z,101980.57
2019-02-20T00:50:05.545Z,101983.38
2019-02-20T00:52:59.893Z,101974.55
2019-02-20T00:55:29.150Z,101981.61
2019-02-20T00:57:58.468Z,101981.92
2019-02-20T01:00:27.813Z,101986.53
2019-02-20T01:02:57.120Z,101986.73
2019-02-20T01:05:26.455Z,101979.59
2019-02-20T01:07:55.686Z,101986.95
2019-02-20T01:10:25.033Z,101987.80
2019-02-20T01:12:54.296Z,101987.92
2019-02-20T01:15:23.675Z,101990.48
2019-02-20T01:17:52.929Z,101997.23
2019-02-20T01:20:22.211Z,101985.25
2019-02-20T01:22:59.633Z,101987.35
2019-02-20T01:25:22.483Z,101991.11
2019-02-20T01:27:51.812Z,101994.83
2019-02-20T01:30:21.153Z,101989.70
2019-02-20T01:32:50.482Z,101992.83
2019-02-20T01:35:20.964Z,101989.53
2019-02-20T01:37:50.292Z,101991.51
2019-02-20T01:40:19.730Z,101987.55
2019-02-20T01:42:49.034Z,101983.92
2019-02-20T01:45:20.940Z,101987.00
2019-02-20T01:47:50.240Z,101979.03
2019-02-20T01:50:22.212Z,101982.45
2019-02-20T01:52:51.486Z,101981.70
2019-02-20T01:55:23.505Z,101983.08
2019-02-20T01:57:52.777Z,101980.49
2019-02-20T02:00:22.126Z,101971.41
2019-02-20T02:02:51.480Z,101977.06
2019-02-20T02:05:20.856Z,101975.16
2019-02-20T02:07:50.110Z,101968.20
2019-02-20T02:10:20.660Z,101982.72
2019-02-20T02:12:49.897Z,101979.69
2019-02-20T02:15:20.751Z,101978.48
2019-02-20T02:17:50.143Z,101983.23
2019-02-20T02:20:19.594Z,101986.15
2019-02-20T02:22:48.883Z,101979.39
2019-02-20T02:25:18.175Z,101967.97
2019-02-20T02:27:47.428Z,101970.13
2019-02-20T02:30:16.852Z,101970.59
2019-02-20T02:32:46.100Z,101965.76
2019-02-20T02:35:15.412Z,101965.45
2019-02-20T02:37:44.676Z,101967.16
2019-02-20T02:40:13.973Z,101964.13
2019-02-20T02:42:43.212Z,101954.66
2019-02-20T02:45:12.498Z,101957.28
2019-02-20T02:47:41.748Z,101959.09
2019-02-20T02:50:11.010Z,101959.95
2019-02-20T02:52:40.291Z,101950.89
2019-02-20T02:55:09.567Z,101955.74
2019-02-20T02:57:38.842Z,101953.91
2019-02-20T03:00:08.522Z,101957.48
2019-02-20T03:02:37.752Z,101959.34
2019-02-20T03:05:07.911Z,101952.27
2019-02-20T03:07:37.182Z,101959.95
2019-02-20T03:10:07.039Z,101953.02
2019-02-20T03:12:36.302Z,101948.87
2019-02-20T03:15:06.273Z,101950.66
2019-02-20T03:17:35.559Z,101950.55
2019-02-20T03:20:05.415Z,101954.09
2019-02-20T03:22:34.695Z,101962.63
2019-02-20T03:25:03.994Z,101961.30
2019-02-20T03:27:33.271Z,101969.39
2019-02-20T03:30:02.540Z,101964.84
2019-02-20T03:32:33.042Z,101964.20
2019-02-20T03:35:02.378Z,101970.98
2019-02-20T03:37:31.670Z,101965.80
2019-02-20T03:40:00.996Z,101969.22
2019-02-20T03:42:30.270Z,101970.27
2019-02-20T03:44:59.605Z,101968.93
2019-02-20T03:47:28.894Z,101971.63
2019-02-20T03:49:58.193Z,101971.12
2019-02-20T03:52:27.478Z,101976.53
2019-02-20T03:54:56.793Z,101980.56
2019-02-20T03:57:26.094Z,101986.50
2019-02-20T03:59:55.360Z,101985.80
2019-02-20T04:02:24.737Z,101982.93
2019-02-20T04:04:54.004Z,101984.89
2019-02-20T04:07:23.281Z,101990.70
2019-02-20T04:09:52.522Z,101997.67
2019-02-20T04:12:21.858Z,101999.89
2019-02-20T04:14:51.147Z,102000.70
2019-02-20T04:17:20.441Z,101995.23
2019-02-20T04:19:49.781Z,102001.33
2019-02-20T04:22:19.064Z,101995.34
2019-02-20T04:24:48.525Z,101998.03
2019-02-20T04:27:17.782Z,101993.41
2019-02-20T04:29:47.068Z,101992.46
2019-02-20T04:32:16.343Z,101996.84
2019-02-20T04:34:45.689Z,101996.44
2019-02-20T04:37:14.976Z,101993.80
2019-02-20T04:39:44.236Z,101990.41
2019-02-20T04:42:13.522Z,101991.59
2019-02-20T04:44:42.767Z,101986.94
2019-02-20T04:47:12.021Z,101993.73
2019-02-20T04:49:41.318Z,101992.69
2019-02-20T04:52:10.606Z,101988.78
2019-02-20T04:54:39.892Z,101990.89
2019-02-20T04:57:09.186Z,101988.29
2019-02-20T04:59:38.495Z,101989.25
2019-02-20T05:02:07.760Z,101979.97
2019-02-20T05:04:37.142Z,101982.31
2019-02-20T05:07:06.437Z,101979.07
2019-02-20T05:09:35.738Z,101982.65
2019-02-20T05:12:05.190Z,101983.30
2019-02-20T05:14:34.470Z,101979.10
2019-02-20T05:17:03.737Z,101983.92
2019-02-20T05:19:33.033Z,101988.98
2019-02-20T05:22:02.300Z,101986.50
2019-02-20T05:24:31.621Z,101982.33
2019-02-20T05:27:00.866Z,101985.78
2019-02-20T05:29:30.159Z,101988.10
2019-02-20T05:31:59.434Z,101983.52
2019-02-20T05:34:28.785Z,101987.00
2019-02-20T05:36:58.085Z,101988.58
2019-02-20T05:39:27.376Z,101991.05
2019-02-20T05:41:56.675Z,101978.78
2019-02-20T05:44:25.984Z,101984.44
2019-02-20T05:46:55.277Z,101980.69
2019-02-20T05:49:24.570Z,101989.88
2019-02-20T05:51:53.821Z,101987.30
2019-02-20T05:54:23.224Z,101993.05
2019-02-20T05:56:52.475Z,101989.80
2019-02-20T05:59:21.705Z,101989.89
2019-02-20T06:01:50.981Z,101998.31
2019-02-20T06:04:20.277Z,101996.50
2019-02-20T06:06:49.594Z,101999.88
2019-02-20T06:09:18.921Z,102005.80
2019-02-20T06:11:48.273Z,102003.06
2019-02-20T06:14:17.549Z,102004.77
2019-02-20T06:16:46.837Z,102002.14
2019-02-20T06:19:16.165Z,102001.65
2019-02-20T06:21:45.512Z,102001.75
2019-02-20T06:24:14.825Z,102008.55
2019-02-20T06:26:44.154Z,102003.66
2019-02-20T06:29:13.442Z,102007.49
2019-02-20T06:31:42.806Z,102014.63
2019-02-20T06:34:12.094Z,102014.36
2019-02-20T06:36:41.403Z,102013.56
2019-02-20T06:39:10.667Z,102015.98
2019-02-20T06:41:39.969Z,102019.35
2019-02-20T06:44:09.289Z,102019.09
2019-02-20T06:46:38.593Z,102019.52
2019-02-20T06:49:07.879Z,102011.23
2019-02-20T06:51:37.254Z,102018.88
2019-02-20T06:54:06.551Z,102024.03
2019-02-20T06:56:35.869Z,102025.58
2019-02-20T06:59:05.213Z,102029.39
2019-02-20T07:01:34.501Z,102034.25
2019-02-20T07:04:03.799Z,102033.15
2019-02-20T07:06:43.949Z,102035.30
2019-02-20T07:09:41.921Z,102034.75
2019-02-20T07:12:31.910Z,102041.27
2019-02-20T07:15:25.059Z,102038.70
2019-02-20T07:18:30.831Z,102054.17
2019-02-20T07:21:35.104Z,102050.95
2019-02-20T07:24:33.118Z,102051.36
2019-02-20T07:28:07.962Z,102055.88
2019-02-20T07:30:37.244Z,102054.88
2019-02-20T07:33:06.549Z,102064.56
2019-02-20T07:35:35.784Z,102070.42
2019-02-20T07:38:05.040Z,102074.48
2019-02-20T07:40:34.337Z,102071.14
2019-02-20T07:43:03.621Z,102081.52
2019-02-20T07:45:35.934Z,102081.23
2019-02-20T07:48:05.296Z,102071.55
2019-02-20T07:50:34.566Z,102080.05
2019-02-20T07:53:03.896Z,102076.11
2019-02-20T07:55:33.262Z,102082.22
2019-02-20T07:58:02.521Z,102079.80
2019-02-20T08:00:31.829Z,102077.78
2019-02-20T08:03:01.077Z,102085.83
2019-02-20T08:05:30.519Z,102086.83
2019-02-20T08:07:59.791Z,102088.60
2019-02-20T08:10:29.088Z,102094.58
2019-02-20T08:12:58.345Z,102089.16
2019-02-20T08:15:27.698Z,102103.66
2019-02-20T08:17:56.973Z,102089.54
2019-02-20T08:20:26.317Z,102095.86
2019-02-20T08:22:55.648Z,102103.25
2019-02-20T08:25:24.928Z,102106.71
2019-02-20T08:27:54.197Z,102115.85
2019-02-20T08:30:23.521Z,102125.41
2019-02-20T08:32:52.785Z,102114.10
2019-02-20T08:35:22.109Z,102118.83
2019-02-20T08:37:51.384Z,102117.62
2019-02-20T08:40:20.677Z,102107.98
2019-02-20T08:42:50.010Z,102109.14
2019-02-20T08:45:19.300Z,102112.04
2019-02-20T08:47:48.625Z,102120.67
2019-02-20T08:50:17.930Z,102120.66
2019-02-20T08:52:47.242Z,102126.45
2019-02-20T08:55:18.746Z,102128.09
2019-02-20T08:57:47.639Z,102131.98
2019-02-20T09:00:16.928Z,102128.13
2019-02-20T09:02:46.198Z,102134.53
2019-02-20T09:05:15.433Z,102137.00
2019-02-20T09:07:44.722Z,102140.15
2019-02-20T09:10:14.073Z,102143.70
2019-02-20T09:12:43.383Z,102144.39
2019-02-20T09:15:13.046Z,102140.53
2019-02-20T09:17:42.322Z,102134.80
2019-02-20T09:20:11.699Z,102142.53
2019-02-20T09:22:40.973Z,102138.23
2019-02-20T09:25:19.222Z,102144.97
2019-02-20T09:27:41.743Z,102140.16
2019-02-20T09:30:12.908Z,102140.75
2019-02-20T09:32:42.255Z,102142.55
2019-02-20T09:35:11.619Z,102133.32
2019-02-20T09:37:40.890Z,102137.00
2019-02-20T09:40:12.666Z,102145.50
2019-02-20T09:42:43.039Z,102147.23
2019-02-20T09:45:12.315Z,102139.91
2019-02-20T09:47:41.596Z,102142.13
2019-02-20T09:50:10.973Z,102136.27
2019-02-20T09:52:40.287Z,102140.53
2019-02-20T09:55:10.390Z,102143.39
2019-02-20T09:57:39.674Z,102145.44
2019-02-20T10:00:11.898Z,102145.03
2019-02-20T10:02:41.200Z,102145.42
2019-02-20T10:05:10.996Z,102148.31
2019-02-20T10:07:40.285Z,102139.73
2019-02-20T10:10:09.635Z,102137.38
2019-02-20T10:12:38.925Z,102138.33
2019-02-20T10:15:08.973Z,102129.97
2019-02-20T10:17:38.246Z,102128.17
2019-02-20T10:20:08.612Z,102134.62
2019-02-20T10:22:37.916Z,102135.05
2019-02-20T10:25:07.721Z,102149.58
2019-02-20T10:27:37.015Z,102142.02
2019-02-20T10:30:08.591Z,102135.22
2019-02-20T10:32:37.881Z,102141.73
2019-02-20T10:35:08.299Z,102141.52
2019-02-20T10:37:37.609Z,102144.65
2019-02-20T10:40:07.715Z,102148.34
2019-02-20T10:42:37.013Z,102153.25
2019-02-20T10:45:06.618Z,102155.99
2019-02-20T10:47:35.905Z,102152.41
2019-02-20T10:50:06.234Z,102156.48
2019-02-20T10:52:37.105Z,102161.36
2019-02-20T10:55:06.656Z,102157.38
2019-02-20T10:57:36.178Z,102156.79
2019-02-20T11:00:08.759Z,102159.37
2019-02-20T11:02:38.036Z,102162.89
2019-02-20T11:05:07.734Z,102160.88
2019-02-20T11:07:37.051Z,102157.22
2019-02-20T11:10:06.616Z,102155.14
2019-02-20T11:12:35.951Z,102154.80
2019-02-20T11:15:05.891Z,102159.75
2019-02-20T11:17:37.108Z,102163.30
2019-02-20T11:20:06.750Z,102159.68
2019-02-20T11:22:38.741Z,102166.81
2019-02-20T11:25:08.897Z,102158.87
2019-02-20T11:27:39.521Z,102160.62
2019-02-20T11:30:11.649Z,102161.05
2019-02-20T11:32:40.972Z,102162.83
2019-02-20T11:35:10.267Z,102167.27
2019-02-20T11:37:39.579Z,102163.31
2019-02-20T11:40:09.404Z,102158.41
2019-02-20T11:42:38.680Z,102161.50
2019-02-20T11:45:08.617Z,102161.09
2019-02-20T11:47:37.969Z,102158.80
2019-02-20T11:50:08.367Z,102168.58
2019-02-20T11:52:38.589Z,102164.16
2019-02-20T11:55:08.507Z,102153.51
2019-02-20T11:57:37.955Z,102164.16
2019-02-20T12:00:09.299Z,102159.23
2019-02-20T12:02:38.605Z,102161.44
2019-02-20T12:05:08.036Z,102150.37
2019-02-20T12:07:37.422Z,102155.36
2019-02-20T12:10:08.036Z,102149.13
2019-02-20T12:12:37.377Z,102157.08
2019-02-20T12:15:07.880Z,102146.91
2019-02-20T12:17:37.291Z,102148.23
2019-02-20T12:20:06.756Z,102148.69
2019-02-20T12:22:36.178Z,102156.23
2019-02-20T12:25:05.548Z,102153.98
2019-02-20T12:27:35.036Z,102150.30
2019-02-20T12:30:04.950Z,102157.67
2019-02-20T12:32:35.876Z,102159.70
2019-02-20T12:35:05.308Z,102161.05
2019-02-20T12:37:34.622Z,102157.97
2019-02-20T12:40:05.117Z,102165.05
2019-02-20T12:42:34.485Z,102159.23
2019-02-20T12:45:03.934Z,102161.01
2019-02-20T12:47:33.280Z,102165.03
2019-02-20T12:50:02.723Z,102161.02
2019-02-20T12:52:32.013Z,102159.27
2019-02-20T12:55:01.378Z,102155.26
2019-02-20T12:57:30.701Z,102161.04
2019-02-20T12:59:59.992Z,102155.52
2019-02-20T13:02:29.325Z,102148.11
2019-02-20T13:04:58.761Z,102151.31
2019-02-20T13:07:28.086Z,102147.25
2019-02-20T13:09:57.391Z,102142.35
2019-02-20T13:12:26.701Z,102147.59
2019-02-20T13:14:55.997Z,102144.52
2019-02-20T13:17:25.387Z,102141.98
2019-02-20T13:19:56.682Z,102134.51
2019-02-20T13:22:25.801Z,102136.21
2019-02-20T13:24:55.147Z,102141.96
2019-02-20T13:27:24.414Z,102145.97
2019-02-20T13:29:53.752Z,102149.95
2019-02-20T13:32:23.034Z,102147.31
2019-02-20T13:34:52.484Z,102143.66
2019-02-20T13:37:21.780Z,102139.80
2019-02-20T13:39:52.168Z,102146.87
2019-02-20T13:42:21.674Z,102149.02
2019-02-20T13:44:50.978Z,102147.29
2019-02-20T13:47:20.303Z,102142.28
2019-02-20T13:49:49.669Z,102138.28
2019-02-20T13:52:19.031Z,102136.89
2019-02-20T13:54:48.418Z,102123.11
2019-02-20T13:57:18.139Z,102131.52
2019-02-20T13:59:47.507Z,102128.08
2019-02-20T14:02:16.823Z,102131.25
2019-02-20T14:04:46.195Z,102127.33
2019-02-20T14:07:15.493Z,102135.86
2019-02-20T14:09:44.856Z,102132.04
2019-02-20T14:12:14.219Z,102125.48
2019-02-20T14:14:43.535Z,102122.77
2019-02-20T14:17:12.963Z,102121.64
2019-02-20T14:19:42.265Z,102115.88
2019-02-20T14:22:11.645Z,102122.52
2019-02-20T14:24:40.957Z,102115.67
2019-02-20T14:27:11.310Z,102114.05
2019-02-20T14:29:40.717Z,102116.94
2019-02-20T14:32:10.171Z,102119.02
2019-02-20T14:34:42.247Z,102115.91
2019-02-20T14:37:11.583Z,102113.54
2019-02-20T14:39:41.263Z,102118.13
2019-02-20T14:42:10.883Z,102112.23
2019-02-20T14:44:40.214Z,102112.84
2019-02-20T14:47:09.588Z,102116.61
2019-02-20T14:49:38.917Z,102118.31
2019-02-20T14:52:08.235Z,102115.32
2019-02-20T14:54:37.687Z,102118.22
2019-02-20T14:57:07.022Z,102122.64
2019-02-20T14:59:37.096Z,102120.94
2019-02-20T15:02:06.423Z,102123.64
2019-02-20T15:04:35.764Z,102120.11
2019-02-20T15:07:05.102Z,102130.07
2019-02-20T15:09:34.479Z,102118.70
2019-02-20T15:12:03.860Z,102124.87
2019-02-20T15:14:34.657Z,102132.57
2019-02-20T15:17:04.047Z,102122.91
2019-02-20T15:19:33.368Z,102127.60
2019-02-20T15:22:02.763Z,102132.58
2019-02-20T15:24:32.097Z,102131.66
2019-02-20T15:27:01.531Z,102129.42
2019-02-20T15:29:31.140Z,102128.14
2019-02-20T15:32:00.556Z,102128.09
2019-02-20T15:34:29.888Z,102124.53
2019-02-20T15:36:59.231Z,102128.17
2019-02-20T15:39:28.568Z,102124.68
2019-02-20T15:41:57.952Z,102119.47
2019-02-20T15:44:27.698Z,102132.16
2019-02-20T15:46:57.146Z,102131.39
2019-02-20T15:49:26.501Z,102129.42
2019-02-20T15:51:55.829Z,102126.01
2019-02-20T15:54:25.189Z,102125.90
2019-02-20T15:56:54.540Z,102132.22
2019-02-20T15:59:23.927Z,102131.13
2019-02-20T16:01:53.258Z,102130.83
2019-02-20T16:04:22.601Z,102142.28
2019-02-20T16:06:51.931Z,102136.55
2019-02-20T16:09:21.309Z,102141.80
2019-02-20T16:11:50.655Z,102139.17
2019-02-20T16:14:19.928Z,102138.91
2019-02-20T16:16:49.414Z,102145.05
2019-02-20T16:19:18.806Z,102143.64
2019-02-20T16:21:54.455Z,102137.14
2019-02-20T16:24:23.755Z,102139.24
2019-02-20T16:26:53.143Z,102147.23
2019-02-20T16:29:22.642Z,102143.61
2019-02-20T16:31:52.068Z,102151.31
2019-02-20T16:34:21.360Z,102149.09
2019-02-20T16:36:50.762Z,102145.53
2019-02-20T16:39:20.188Z,102148.19
2019-02-20T16:41:49.584Z,102150.92
2019-02-20T16:44:18.972Z,102161.50
2019-02-20T16:46:48.623Z,102155.34
2019-02-20T16:49:18.061Z,102155.55
2019-02-20T16:51:47.512Z,102162.64
2019-02-20T16:54:16.871Z,102172.11
2019-02-20T16:56:46.244Z,102171.64
2019-02-20T16:59:15.543Z,102168.98
2019-02-20T17:01:45.228Z,102176.11
2019-02-20T17:04:14.656Z,102175.22
2019-02-20T17:06:43.953Z,102177.42
2019-02-20T17:09:13.349Z,102183.18
2019-02-20T17:11:42.668Z,102186.71
2019-02-20T17:14:12.046Z,102184.03
2019-02-20T17:16:41.692Z,102191.09
2019-02-20T17:19:11.049Z,102191.98
2019-02-20T17:21:40.343Z,102195.06
2019-02-20T17:24:09.706Z,102200.78
2019-02-20T17:26:38.998Z,102205.20
2019-02-20T17:29:08.311Z,102208.77
2019-02-20T17:31:38.003Z,102208.66
2019-02-20T17:34:07.379Z,102214.98
2019-02-20T17:36:36.714Z,102219.08
2019-02-20T17:39:07.446Z,102219.08
2019-02-20T17:41:36.737Z,102225.12
2019-02-20T17:44:06.117Z,102221.84
2019-02-20T17:46:35.887Z,102217.80
2019-02-20T17:49:05.316Z,102219.58
2019-02-20T17:51:34.670Z,102220.84
2019-02-20T17:54:04.119Z,102213.70
2019-02-20T17:56:33.444Z,102219.38
2019-02-20T17:59:02.866Z,102225.02
2019-02-20T18:01:32.171Z,102224.98
2019-02-20T18:04:01.536Z,102226.28
2019-02-20T18:06:30.928Z,102223.59
2019-02-20T18:09:00.241Z,102230.06
2019-02-20T18:11:29.596Z,102228.81
2019-02-20T18:13:58.937Z,102232.49
2019-02-20T18:16:28.299Z,102223.95
2019-02-20T18:18:57.713Z,102236.27
2019-02-20T18:21:27.086Z,102235.10
2019-02-20T18:23:56.528Z,102237.48
2019-02-20T18:26:26.025Z,102236.63
2019-02-20T18:28:55.307Z,102230.81
2019-02-20T18:31:24.758Z,102240.95
2019-02-20T18:33:54.046Z,102234.89
2019-02-20T18:36:23.395Z,102235.81
2019-02-20T18:38:52.734Z,102237.28
2019-02-20T18:41:22.138Z,102237.05
2019-02-20T18:43:51.529Z,102243.69
2019-02-20T18:46:20.895Z,102236.89
2019-02-20T18:48:50.375Z,102246.14
2019-02-20T18:51:19.741Z,102246.24
2019-02-20T18:53:49.040Z,102253.95
2019-02-20T18:56:18.407Z,102250.77
2019-02-20T18:58:47.741Z,102249.84
2019-02-20T19:01:17.091Z,102251.07
2019-02-20T19:03:46.482Z,102246.45
2019-02-20T19:06:15.877Z,102245.64
2019-02-20T19:08:57.597Z,102241.35
2019-02-20T19:11:43.869Z,102245.35
2019-02-20T19:14:21.568Z,102236.53
2019-02-20T19:17:44.143Z,102241.31
2019-02-20T19:20:26.111Z,102238.88
2019-02-20T19:23:09.217Z,102245.35
2019-02-20T19:26:19.722Z,102244.98
2019-02-20T19:29:25.039Z,102248.55
2019-02-20T19:32:38.326Z,102247.10
2019-02-20T19:35:39.916Z,102240.95
2019-02-20T19:38:59.109Z,102238.70
2019-02-20T19:42:07.074Z,102250.81
2019-02-20T19:44:58.775Z,102251.81
2019-02-20T19:48:07.854Z,102242.48
2019-02-20T19:51:13.904Z,102242.48
2019-02-20T19:54:22.426Z,102247.89
2019-02-20T19:57:17.002Z,102249.84
2019-02-20T19:59:59.397Z,102251.53
2019-02-20T20:02:57.503Z,102247.78
2019-02-20T20:06:09.499Z,102248.78
2019-02-20T20:09:19.560Z,102242.10
2019-02-20T20:12:32.601Z,102248.28
2019-02-20T20:15:32.485Z,102242.34
2019-02-20T20:18:29.444Z,102244.61
2019-02-20T20:21:20.535Z,102244.16
2019-02-20T20:24:30.565Z,102241.64
2019-02-20T20:27:42.809Z,102246.85
2019-02-20T20:30:46.137Z,102240.96
2019-02-20T20:33:52.351Z,102246.34
2019-02-20T20:36:46.852Z,102248.66
2019-02-20T20:39:56.933Z,102258.72
2019-02-20T20:43:04.937Z,102255.61
2019-02-20T20:45:58.817Z,102254.41
2019-02-20T20:48:45.412Z,102258.68
2019-02-20T20:51:39.086Z,102273.91
2019-02-20T20:55:00.565Z,102273.59
2019-02-20T20:57:52.863Z,102275.09
2019-02-20T21:01:04.923Z,102274.45
2019-02-20T21:03:35.668Z,102277.79
2019-02-20T21:06:34.103Z,102272.80
2019-02-20T21:09:43.606Z,102275.34
2019-02-20T21:12:45.332Z,102277.89
2019-02-20T21:16:02.004Z,102274.25
2019-02-20T21:18:45.406Z,102280.72
2019-02-20T21:21:20.239Z,102278.08
2019-02-20T21:24:26.320Z,102282.01
2019-02-20T21:27:29.934Z,102275.02
2019-02-20T21:30:34.824Z,102281.89
2019-02-20T21:33:43.305Z,102289.64
2019-02-20T21:36:23.928Z,102285.63
2019-02-20T21:39:34.931Z,102288.69
2019-02-20T21:42:43.857Z,102289.34
2019-02-20T21:45:45.589Z,102288.97
2019-02-20T21:49:01.774Z,102292.80
2019-02-20T21:52:10.023Z,102300.54
2019-02-20T21:55:20.362Z,102307.83
2019-02-20T21:58:33.291Z,102306.88
2019-02-20T22:01:07.035Z,102301.80
2019-02-20T22:04:04.870Z,102304.35
2019-02-20T22:07:13.556Z,102305.45
2019-02-20T22:10:26.539Z,102298.98
2019-02-20T22:13:24.973Z,102312.72
2019-02-20T22:16:30.738Z,102310.42
2019-02-20T22:19:44.323Z,102314.42
2019-02-20T22:22:39.136Z,102317.33
2019-02-20T22:26:00.927Z,102323.28
2019-02-20T22:29:09.420Z,102321.19
2019-02-20T22:32:18.090Z,102323.28
2019-02-20T22:35:18.197Z,102326.56
2019-02-20T22:38:15.040Z,102328.59
2019-02-20T22:41:08.101Z,102328.05
2019-02-20T22:44:30.601Z,102322.67
2019-02-20T22:47:17.871Z,102317.79
2019-02-20T22:50:40.045Z,102321.89
2019-02-20T22:53:30.489Z,102327.31
2019-02-20T22:56:32.489Z,102318.89
2019-02-20T22:59:24.455Z,102316.64
2019-02-20T23:02:19.353Z,102324.39
2019-02-20T23:04:59.850Z,102323.27
2019-02-20T23:07:49.017Z,102326.29
2019-02-20T23:10:54.748Z,102326.97
2019-02-20T23:13:40.714Z,102322.05
2019-02-20T23:16:10.104Z,102325.77
2019-02-20T23:18:39.801Z,102326.52
2019-02-20T23:21:09.148Z,102332.41
2019-02-20T23:23:38.432Z,102327.03
2019-02-20T23:26:07.740Z,102327.16
2019-02-20T23:28:37.054Z,102328.47
2019-02-20T23:31:06.422Z,102335.63
2019-02-20T23:33:35.746Z,102334.00
2019-02-20T23:36:05.020Z,102334.41
2019-02-20T23:38:34.325Z,102338.52
2019-02-20T23:41:03.576Z,102340.59
2019-02-20T23:43:32.871Z,102343.36
2019-02-20T23:46:02.179Z,102346.91
2019-02-20T23:48:31.490Z,102343.36
2019-02-20T23:51:00.762Z,102353.81
2019-02-20T23:53:30.053Z,102349.95
2019-02-20T23:55:59.304Z,102352.94
2019-02-20T23:58:28.626Z,102345.09
